createdAt,value
2018-12-27T00:00:38.691Z,1022.61
2018-12-27T00:01:38.701Z,1022.64
2018-12-27T00:02:38.697Z,1022.65
2018-12-27T00:03:38.702Z,1022.65
2018-12-27T00:04:38.699Z,1022.66
2018-12-27T00:05:38.703Z,1022.68
2018-12-27T00:06:38.705Z,1022.65
2018-12-27T00:07:38.707Z,1022.62
2018-12-27T00:08:38.708Z,1022.65
2018-12-27T00:09:38.707Z,1022.63
2018-12-27T00:10:38.708Z,1022.65
2018-12-27T00:11:38.707Z,1022.63
2018-12-27T00:12:38.712Z,1022.63
2018-12-27T00:13:38.708Z,1022.64
2018-12-27T00:14:38.711Z,1022.65
2018-12-27T00:15:38.721Z,1022.59
2018-12-27T00:16:38.715Z,1022.65
2018-12-27T00:17:38.719Z,1022.62
2018-12-27T00:18:38.719Z,1022.61
2018-12-27T00:19:38.723Z,1022.64
2018-12-27T00:20:38.722Z,1022.68
2018-12-27T00:21:38.730Z,1022.67
2018-12-27T00:22:38.731Z,1022.66
2018-12-27T00:23:38.727Z,1022.66
2018-12-27T00:24:38.727Z,1022.66
2018-12-27T00:25:38.723Z,1022.67
2018-12-27T00:26:38.734Z,1022.64
2018-12-27T00:27:38.734Z,1022.63
2018-12-27T00:28:38.732Z,1022.65
2018-12-27T00:29:38.737Z,1022.64
2018-12-27T00:30:38.738Z,1022.63
2018-12-27T00:31:38.744Z,1022.61
2018-12-27T00:32:38.742Z,1022.59
2018-12-27T00:33:38.742Z,1022.56
2018-12-27T00:34:38.747Z,1022.52
2018-12-27T00:35:38.742Z,1022.51
2018-12-27T00:36:38.750Z,1022.50
2018-12-27T00:37:38.759Z,1022.50
2018-12-27T00:38:38.748Z,1022.51
2018-12-27T00:39:38.755Z,1022.56
2018-12-27T00:40:38.757Z,1022.57
2018-12-27T00:41:38.762Z,1022.53
2018-12-27T00:42:38.762Z,1022.55
2018-12-27T00:43:38.765Z,1022.56
2018-12-27T00:44:38.755Z,1022.54
2018-12-27T00:45:38.764Z,1022.49
2018-12-27T00:46:38.761Z,1022.49
2018-12-27T00:47:38.758Z,1022.49
2018-12-27T00:48:38.765Z,1022.45
2018-12-27T00:49:38.770Z,1022.41
2018-12-27T00:50:38.771Z,1022.44
2018-12-27T00:51:38.773Z,1022.44
2018-12-27T00:52:38.769Z,1022.44
2018-12-27T00:53:38.776Z,1022.42
2018-12-27T00:54:38.781Z,1022.43
2018-12-27T00:55:38.784Z,1022.44
2018-12-27T00:56:38.777Z,1022.39
2018-12-27T00:57:38.789Z,1022.42
2018-12-27T00:58:38.782Z,1022.37
2018-12-27T00:59:38.789Z,1022.37
2018-12-27T01:00:38.802Z,1022.39
2018-12-27T01:01:38.786Z,1022.42
2018-12-27T01:02:38.789Z,1022.41
2018-12-27T01:03:38.791Z,1022.35
2018-12-27T01:04:38.792Z,1022.35
2018-12-27T01:05:38.792Z,1022.35
2018-12-27T01:06:38.797Z,1022.30
2018-12-27T01:07:38.803Z,1022.30
2018-12-27T01:08:38.795Z,1022.28
2018-12-27T01:09:38.803Z,1022.26
2018-12-27T01:10:38.805Z,1022.31
2018-12-27T01:11:38.805Z,1022.28
2018-12-27T01:12:38.811Z,1022.27
2018-12-27T01:13:38.805Z,1022.29
2018-12-27T01:14:38.807Z,1022.29
2018-12-27T01:15:38.805Z,1022.32
2018-12-27T01:16:38.820Z,1022.30
2018-12-27T01:17:38.810Z,1022.32
2018-12-27T01:18:38.810Z,1022.30
2018-12-27T01:19:38.810Z,1022.28
2018-12-27T01:20:38.813Z,1022.29
2018-12-27T01:21:38.818Z,1022.30
2018-12-27T01:22:38.815Z,1022.31
2018-12-27T01:23:38.820Z,1022.31
2018-12-27T01:24:38.818Z,1022.29
2018-12-27T01:25:38.825Z,1022.26
2018-12-27T01:26:38.820Z,1022.28
2018-12-27T01:27:38.825Z,1022.26
2018-12-27T01:28:38.820Z,1022.28
2018-12-27T01:29:38.825Z,1022.30
2018-12-27T01:30:38.828Z,1022.28
2018-12-27T01:31:38.850Z,1022.26
2018-12-27T01:32:38.837Z,1022.27
2018-12-27T01:33:38.827Z,1022.27
2018-12-27T01:34:38.839Z,1022.25
2018-12-27T01:35:38.861Z,1022.26
2018-12-27T01:36:38.837Z,1022.28
2018-12-27T01:37:38.837Z,1022.31
2018-12-27T01:38:38.840Z,1022.22
2018-12-27T01:39:38.841Z,1022.28
2018-12-27T01:40:38.847Z,1022.25
2018-12-27T01:41:38.844Z,1022.24
2018-12-27T01:42:38.851Z,1022.29
2018-12-27T01:43:38.845Z,1022.27
2018-12-27T01:44:38.848Z,1022.28
2018-12-27T01:45:38.853Z,1022.28
2018-12-27T01:46:38.852Z,1022.22
2018-12-27T01:47:38.852Z,1022.16
2018-12-27T01:48:38.855Z,1022.19
2018-12-27T01:49:38.855Z,1022.19
2018-12-27T01:50:38.856Z,1022.18
2018-12-27T01:51:38.858Z,1022.19
2018-12-27T01:52:38.858Z,1022.17
2018-12-27T01:53:38.858Z,1022.19
2018-12-27T01:54:38.854Z,1022.18
2018-12-27T01:55:38.863Z,1022.18
2018-12-27T01:56:38.866Z,1022.11
2018-12-27T01:57:38.862Z,1022.09
2018-12-27T01:58:38.871Z,1022.09
2018-12-27T01:59:38.869Z,1022.08
2018-12-27T02:00:38.876Z,1022.10
2018-12-27T02:01:38.871Z,1022.09
2018-12-27T02:02:38.879Z,1022.04
2018-12-27T02:03:38.877Z,1022.02
2018-12-27T02:04:38.877Z,1021.99
2018-12-27T02:05:38.879Z,1022.02
2018-12-27T02:06:38.880Z,1022.03
2018-12-27T02:07:38.903Z,1022.05
2018-12-27T02:08:38.892Z,1022.01
2018-12-27T02:09:38.983Z,1022.02
2018-12-27T02:10:38.886Z,1021.97
2018-12-27T02:11:38.892Z,1021.99
2018-12-27T02:12:38.888Z,1021.93
2018-12-27T02:13:38.893Z,1021.93
2018-12-27T02:14:38.891Z,1021.92
2018-12-27T02:15:38.890Z,1021.92
2018-12-27T02:16:38.894Z,1021.90
2018-12-27T02:17:38.898Z,1021.90
2018-12-27T02:18:38.904Z,1021.95
2018-12-27T02:19:38.900Z,1021.93
2018-12-27T02:20:38.900Z,1021.91
2018-12-27T02:21:38.900Z,1021.93
2018-12-27T02:22:39.887Z,1021.87
2018-12-27T02:23:38.906Z,1021.88
2018-12-27T02:24:38.903Z,1021.91
2018-12-27T02:25:38.907Z,1021.91
2018-12-27T02:26:38.913Z,1021.90
2018-12-27T02:27:38.911Z,1021.87
2018-12-27T02:28:38.910Z,1021.83
2018-12-27T02:29:38.910Z,1021.85
2018-12-27T02:30:38.919Z,1021.87
2018-12-27T02:31:38.919Z,1021.89
2018-12-27T02:32:38.947Z,1021.87
2018-12-27T02:33:38.924Z,1021.87
2018-12-27T02:34:38.921Z,1021.87
2018-12-27T02:35:38.922Z,1021.83
2018-12-27T02:36:38.914Z,1021.83
2018-12-27T02:37:38.926Z,1021.86
2018-12-27T02:38:38.922Z,1021.84
2018-12-27T02:39:40.163Z,1021.85
2018-12-27T02:40:38.928Z,1021.88
2018-12-27T02:41:38.928Z,1021.83
2018-12-27T02:42:38.921Z,1021.86
2018-12-27T02:43:38.952Z,1021.90
2018-12-27T02:44:38.927Z,1021.88
2018-12-27T02:45:38.938Z,1021.87
2018-12-27T02:46:38.940Z,1021.83
2018-12-27T02:47:38.942Z,1021.84
2018-12-27T02:48:38.943Z,1021.84
2018-12-27T02:49:38.954Z,1021.79
2018-12-27T02:50:38.949Z,1021.81
2018-12-27T02:51:38.946Z,1021.79
2018-12-27T02:52:38.946Z,1021.79
2018-12-27T02:53:38.949Z,1021.78
2018-12-27T02:54:38.944Z,1021.79
2018-12-27T02:55:38.948Z,1021.75
2018-12-27T02:56:38.954Z,1021.78
2018-12-27T02:57:38.953Z,1021.80
2018-12-27T02:58:38.973Z,1021.82
2018-12-27T02:59:38.964Z,1021.77
2018-12-27T03:00:38.957Z,1021.81
2018-12-27T03:01:38.957Z,1021.77
2018-12-27T03:02:38.990Z,1021.76
2018-12-27T03:03:43.843Z,1021.77
2018-12-27T03:04:38.967Z,1021.73
2018-12-27T03:05:38.967Z,1021.71
2018-12-27T03:06:38.957Z,1021.70
2018-12-27T03:07:38.964Z,1021.70
2018-12-27T03:08:38.964Z,1021.71
2018-12-27T03:09:38.972Z,1021.64
2018-12-27T03:10:38.967Z,1021.65
2018-12-27T03:11:39.036Z,1021.65
2018-12-27T03:12:38.967Z,1021.59
2018-12-27T03:13:38.972Z,1021.55
2018-12-27T03:14:38.985Z,1021.55
2018-12-27T03:15:38.980Z,1021.50
2018-12-27T03:16:38.987Z,1021.51
2018-12-27T03:17:38.988Z,1021.46
2018-12-27T03:18:38.985Z,1021.43
2018-12-27T03:19:38.973Z,1021.41
2018-12-27T03:20:38.983Z,1021.40
2018-12-27T03:21:38.972Z,1021.38
2018-12-27T03:22:38.988Z,1021.36
2018-12-27T03:23:38.983Z,1021.31
2018-12-27T03:24:38.992Z,1021.30
2018-12-27T03:25:38.990Z,1021.29
2018-12-27T03:26:39.007Z,1021.32
2018-12-27T03:27:38.993Z,1021.29
2018-12-27T03:28:38.990Z,1021.31
2018-12-27T03:29:38.990Z,1021.29
2018-12-27T03:30:39.003Z,1021.31
2018-12-27T03:31:38.995Z,1021.29
2018-12-27T03:32:38.996Z,1021.28
2018-12-27T03:33:39.009Z,1021.25
2018-12-27T03:35:38.990Z,1021.20
2018-12-27T03:36:38.988Z,1021.17
2018-12-27T03:37:38.992Z,1021.19
2018-12-27T03:38:39.000Z,1021.19
2018-12-27T03:39:39.001Z,1021.18
2018-12-27T03:40:39.006Z,1021.12
2018-12-27T03:41:39.010Z,1021.13
2018-12-27T03:42:39.000Z,1021.14
2018-12-27T03:43:39.004Z,1021.16
2018-12-27T03:44:39.013Z,1021.09
2018-12-27T03:45:39.019Z,1021.07
2018-12-27T03:46:39.020Z,1021.08
2018-12-27T03:47:39.013Z,1021.09
2018-12-27T03:48:39.012Z,1021.06
2018-12-27T03:49:39.023Z,1021.05
2018-12-27T03:50:39.029Z,1021.02
2018-12-27T03:51:39.026Z,1020.99
2018-12-27T03:52:39.006Z,1021.04
2018-12-27T03:53:39.010Z,1020.97
2018-12-27T03:54:39.008Z,1021.00
2018-12-27T03:55:39.026Z,1020.95
2018-12-27T03:56:39.027Z,1020.96
2018-12-27T03:57:39.033Z,1020.92
2018-12-27T03:58:39.036Z,1020.94
2018-12-27T03:59:39.015Z,1020.98
2018-12-27T04:00:39.023Z,1020.94
2018-12-27T04:01:39.024Z,1020.91
2018-12-27T04:02:39.028Z,1020.95
2018-12-27T04:03:39.021Z,1020.92
2018-12-27T04:04:39.026Z,1020.90
2018-12-27T04:05:39.033Z,1020.92
2018-12-27T04:06:39.018Z,1020.89
2018-12-27T04:07:39.024Z,1020.90
2018-12-27T04:08:39.017Z,1020.85
2018-12-27T04:09:39.024Z,1020.84
2018-12-27T04:10:39.025Z,1020.86
2018-12-27T04:11:39.030Z,1020.85
2018-12-27T04:12:39.029Z,1020.84
2018-12-27T04:13:39.038Z,1020.85
2018-12-27T04:14:39.036Z,1020.85
2018-12-27T04:15:39.034Z,1020.83
2018-12-27T04:16:39.031Z,1020.82
2018-12-27T04:17:39.030Z,1020.82
2018-12-27T04:18:39.034Z,1020.81
2018-12-27T04:19:39.030Z,1020.83
2018-12-27T04:20:39.034Z,1020.80
2018-12-27T04:21:39.037Z,1020.82
2018-12-27T04:22:39.031Z,1020.82
2018-12-27T04:23:39.039Z,1020.90
2018-12-27T04:24:39.038Z,1020.86
2018-12-27T04:25:39.042Z,1020.88
2018-12-27T04:26:39.038Z,1020.88
2018-12-27T04:27:39.041Z,1020.89
2018-12-27T04:28:39.044Z,1020.88
2018-12-27T04:29:39.040Z,1020.85
2018-12-27T04:30:39.038Z,1020.86
2018-12-27T04:31:39.042Z,1020.81
2018-12-27T04:32:39.041Z,1020.79
2018-12-27T04:33:39.042Z,1020.82
2018-12-27T04:34:39.049Z,1020.80
2018-12-27T04:35:39.042Z,1020.76
2018-12-27T04:36:39.049Z,1020.79
2018-12-27T04:37:39.058Z,1020.77
2018-12-27T04:38:39.048Z,1020.74
2018-12-27T04:39:39.048Z,1020.81
2018-12-27T04:40:39.046Z,1020.77
2018-12-27T04:41:39.045Z,1020.77
2018-12-27T04:42:39.049Z,1020.73
2018-12-27T04:43:39.047Z,1020.78
2018-12-27T04:44:39.048Z,1020.72
2018-12-27T04:45:39.064Z,1020.71
2018-12-27T04:46:39.075Z,1020.71
2018-12-27T04:47:39.051Z,1020.68
2018-12-27T04:48:39.053Z,1020.66
2018-12-27T04:49:39.052Z,1020.70
2018-12-27T04:50:39.053Z,1020.71
2018-12-27T04:51:39.052Z,1020.70
2018-12-27T04:52:39.063Z,1020.76
2018-12-27T04:53:39.053Z,1020.71
2018-12-27T04:54:39.054Z,1020.73
2018-12-27T04:55:39.056Z,1020.69
2018-12-27T04:56:39.052Z,1020.68
2018-12-27T04:57:39.055Z,1020.68
2018-12-27T04:58:39.060Z,1020.69
2018-12-27T04:59:39.061Z,1020.68
2018-12-27T05:00:39.056Z,1020.71
2018-12-27T05:01:39.060Z,1020.66
2018-12-27T05:02:39.060Z,1020.64
2018-12-27T05:03:39.059Z,1020.67
2018-12-27T05:04:39.057Z,1020.66
2018-12-27T05:05:39.066Z,1020.67
2018-12-27T05:06:39.064Z,1020.69
2018-12-27T05:07:39.062Z,1020.70
2018-12-27T05:08:39.059Z,1020.69
2018-12-27T05:09:39.068Z,1020.68
2018-12-27T05:10:39.070Z,1020.73
2018-12-27T05:11:39.058Z,1020.71
2018-12-27T05:12:39.062Z,1020.74
2018-12-27T05:13:39.065Z,1020.74
2018-12-27T05:14:39.068Z,1020.78
2018-12-27T05:15:39.070Z,1020.77
2018-12-27T05:16:39.072Z,1020.74
2018-12-27T05:17:39.067Z,1020.78
2018-12-27T05:18:39.071Z,1020.75
2018-12-27T05:19:39.077Z,1020.78
2018-12-27T05:20:39.071Z,1020.77
2018-12-27T05:21:39.076Z,1020.82
2018-12-27T05:22:39.074Z,1020.78
2018-12-27T05:23:39.071Z,1020.76
2018-12-27T05:24:39.070Z,1020.78
2018-12-27T05:25:39.077Z,1020.78
2018-12-27T05:26:39.071Z,1020.83
2018-12-27T05:27:39.073Z,1020.82
2018-12-27T05:28:39.076Z,1020.86
2018-12-27T05:29:39.076Z,1020.83
2018-12-27T05:30:39.076Z,1020.84
2018-12-27T05:31:39.076Z,1020.89
2018-12-27T05:32:39.079Z,1020.90
2018-12-27T05:33:39.075Z,1020.90
2018-12-27T05:34:39.077Z,1020.89
2018-12-27T05:35:39.079Z,1020.91
2018-12-27T05:36:39.082Z,1020.92
2018-12-27T05:37:39.077Z,1020.95
2018-12-27T05:38:39.071Z,1020.90
2018-12-27T05:39:39.087Z,1020.97
2018-12-27T05:40:39.082Z,1020.94
2018-12-27T05:41:39.085Z,1021.00
2018-12-27T05:42:39.085Z,1021.00
2018-12-27T05:43:39.080Z,1021.04
2018-12-27T05:44:39.086Z,1021.05
2018-12-27T05:45:39.087Z,1021.00
2018-12-27T05:46:39.094Z,1021.02
2018-12-27T05:47:39.082Z,1021.01
2018-12-27T05:48:39.093Z,1021.02
2018-12-27T05:49:39.088Z,1021.02
2018-12-27T05:50:39.092Z,1021.02
2018-12-27T05:51:39.087Z,1021.01
2018-12-27T05:52:39.092Z,1021.02
2018-12-27T05:53:39.090Z,1021.03
2018-12-27T05:54:39.095Z,1020.99
2018-12-27T05:55:39.093Z,1021.00
2018-12-27T05:56:39.091Z,1021.05
2018-12-27T05:57:39.097Z,1021.03
2018-12-27T05:58:39.092Z,1021.04
2018-12-27T06:00:39.102Z,1021.05
2018-12-27T06:01:39.097Z,1020.99
2018-12-27T06:02:39.098Z,1021.03
2018-12-27T06:03:39.095Z,1021.04
2018-12-27T06:04:39.096Z,1021.00
2018-12-27T06:05:39.102Z,1021.02
2018-12-27T06:06:39.112Z,1021.03
2018-12-27T06:07:39.101Z,1021.01
2018-12-27T06:08:39.099Z,1020.99
2018-12-27T06:09:39.096Z,1021.03
2018-12-27T06:10:39.106Z,1021.05
2018-12-27T06:11:39.103Z,1021.03
2018-12-27T06:12:39.099Z,1021.04
2018-12-27T06:13:39.106Z,1021.05
2018-12-27T06:14:39.105Z,1021.04
2018-12-27T06:15:39.107Z,1021.09
2018-12-27T06:16:39.105Z,1021.04
2018-12-27T06:17:39.106Z,1021.03
2018-12-27T06:18:39.112Z,1021.06
2018-12-27T06:19:39.110Z,1021.05
2018-12-27T06:20:39.110Z,1021.07
2018-12-27T06:21:39.110Z,1021.06
2018-12-27T06:22:39.108Z,1021.10
2018-12-27T06:23:39.108Z,1021.11
2018-12-27T06:24:39.107Z,1021.10
2018-12-27T06:25:39.111Z,1021.10
2018-12-27T06:26:39.116Z,1021.10
2018-12-27T06:27:39.107Z,1021.09
2018-12-27T06:28:39.115Z,1021.08
2018-12-27T06:29:39.111Z,1021.08
2018-12-27T06:30:39.115Z,1021.09
2018-12-27T06:31:39.118Z,1021.04
2018-12-27T06:32:39.117Z,1021.09
2018-12-27T06:33:39.114Z,1021.07
2018-12-27T06:34:41.456Z,1021.05
2018-12-27T06:35:39.117Z,1021.08
2018-12-27T06:36:39.117Z,1021.07
2018-12-27T06:37:39.116Z,1021.08
2018-12-27T06:38:39.118Z,1021.10
2018-12-27T06:39:39.116Z,1021.09
2018-12-27T06:40:39.177Z,1021.06
2018-12-27T06:41:39.122Z,1021.10
2018-12-27T06:42:39.118Z,1021.06
2018-12-27T06:43:39.119Z,1021.05
2018-12-27T06:44:39.117Z,1021.03
2018-12-27T06:45:39.126Z,1021.02
2018-12-27T06:46:39.116Z,1021.05
2018-12-27T06:47:39.125Z,1021.04
2018-12-27T06:48:39.124Z,1020.99
2018-12-27T06:49:39.126Z,1021.04
2018-12-27T06:50:39.120Z,1021.00
2018-12-27T06:51:39.138Z,1021.04
2018-12-27T06:52:39.126Z,1021.04
2018-12-27T06:53:39.126Z,1021.08
2018-12-27T06:54:39.126Z,1021.09
2018-12-27T06:55:39.117Z,1021.06
2018-12-27T06:56:39.116Z,1021.06
2018-12-27T06:57:39.123Z,1021.09
2018-12-27T06:58:39.130Z,1021.08
2018-12-27T06:59:39.130Z,1021.07
2018-12-27T07:00:39.130Z,1021.12
2018-12-27T07:01:39.129Z,1021.11
2018-12-27T07:02:39.128Z,1021.13
2018-12-27T07:03:39.131Z,1021.12
2018-12-27T07:04:39.130Z,1021.16
2018-12-27T07:05:39.127Z,1021.16
2018-12-27T07:06:39.128Z,1021.23
2018-12-27T07:07:39.130Z,1021.22
2018-12-27T07:08:39.134Z,1021.23
2018-12-27T07:09:39.130Z,1021.28
2018-12-27T07:10:39.141Z,1021.22
2018-12-27T07:11:39.130Z,1021.24
2018-12-27T07:12:39.132Z,1021.23
2018-12-27T07:13:39.134Z,1021.23
2018-12-27T07:14:39.132Z,1021.24
2018-12-27T07:15:39.138Z,1021.27
2018-12-27T07:16:39.184Z,1021.28
2018-12-27T07:17:39.132Z,1021.23
2018-12-27T07:18:39.138Z,1021.31
2018-12-27T07:19:39.139Z,1021.29
2018-12-27T07:20:39.143Z,1021.30
2018-12-27T07:21:39.142Z,1021.26
2018-12-27T07:22:39.139Z,1021.32
2018-12-27T07:23:39.142Z,1021.32
2018-12-27T07:24:39.145Z,1021.34
2018-12-27T07:25:39.141Z,1021.32
2018-12-27T07:26:39.137Z,1021.38
2018-12-27T07:27:39.148Z,1021.32
2018-12-27T07:28:39.142Z,1021.33
2018-12-27T07:29:39.143Z,1021.33
2018-12-27T07:30:39.142Z,1021.31
2018-12-27T07:31:39.158Z,1021.37
2018-12-27T07:32:39.149Z,1021.33
2018-12-27T07:33:39.152Z,1021.36
2018-12-27T07:34:39.149Z,1021.35
2018-12-27T07:35:39.151Z,1021.35
2018-12-27T07:36:39.153Z,1021.35
2018-12-27T07:37:39.153Z,1021.35
2018-12-27T07:38:39.152Z,1021.32
2018-12-27T07:39:39.152Z,1021.34
2018-12-27T07:40:39.157Z,1021.36
2018-12-27T07:41:39.151Z,1021.37
2018-12-27T07:42:39.155Z,1021.35
2018-12-27T07:43:39.150Z,1021.35
2018-12-27T07:44:39.151Z,1021.33
2018-12-27T07:45:39.157Z,1021.37
2018-12-27T07:46:39.162Z,1021.32
2018-12-27T07:47:39.165Z,1021.37
2018-12-27T07:48:39.171Z,1021.29
2018-12-27T07:49:39.171Z,1021.29
2018-12-27T07:50:39.163Z,1021.33
2018-12-27T07:51:39.161Z,1021.25
2018-12-27T07:52:39.168Z,1021.27
2018-12-27T07:53:39.161Z,1021.25
2018-12-27T07:54:39.167Z,1021.24
2018-12-27T07:55:39.172Z,1021.25
2018-12-27T07:56:39.165Z,1021.26
2018-12-27T07:57:39.162Z,1021.25
2018-12-27T07:58:39.170Z,1021.28
2018-12-27T07:59:39.162Z,1021.28
2018-12-27T08:00:39.167Z,1021.31
2018-12-27T08:01:39.166Z,1021.28
2018-12-27T08:02:39.167Z,1021.29
2018-12-27T08:03:39.179Z,1021.28
2018-12-27T08:04:39.179Z,1021.30
2018-12-27T08:05:39.171Z,1021.26
2018-12-27T08:06:39.175Z,1021.27
2018-12-27T08:07:39.176Z,1021.27
2018-12-27T08:08:39.180Z,1021.27
2018-12-27T08:09:39.184Z,1021.29
2018-12-27T08:10:39.183Z,1021.31
2018-12-27T08:11:39.179Z,1021.32
2018-12-27T08:12:39.199Z,1021.32
2018-12-27T08:13:39.184Z,1021.32
2018-12-27T08:14:39.172Z,1021.29
2018-12-27T08:15:39.178Z,1021.29
2018-12-27T08:16:39.180Z,1021.28
2018-12-27T08:17:39.179Z,1021.24
2018-12-27T08:18:39.189Z,1021.26
2018-12-27T08:19:39.189Z,1021.23
2018-12-27T08:20:39.193Z,1021.22
2018-12-27T08:21:39.192Z,1021.22
2018-12-27T08:22:39.190Z,1021.23
2018-12-27T08:23:39.193Z,1021.23
2018-12-27T08:24:39.192Z,1021.19
2018-12-27T08:25:39.194Z,1021.17
2018-12-27T08:26:39.197Z,1021.17
2018-12-27T08:27:39.195Z,1021.15
2018-12-27T08:28:39.203Z,1021.19
2018-12-27T08:29:39.197Z,1021.17
2018-12-27T08:30:39.200Z,1021.16
2018-12-27T08:31:39.202Z,1021.18
2018-12-27T08:32:39.199Z,1021.19
2018-12-27T08:33:39.200Z,1021.21
2018-12-27T08:34:39.208Z,1021.17
2018-12-27T08:35:39.202Z,1021.16
2018-12-27T08:36:39.205Z,1021.18
2018-12-27T08:37:39.209Z,1021.14
2018-12-27T08:38:39.209Z,1021.11
2018-12-27T08:39:39.208Z,1021.14
2018-12-27T08:40:39.213Z,1021.09
2018-12-27T08:41:39.210Z,1021.12
2018-12-27T08:42:39.217Z,1021.12
2018-12-27T08:43:39.214Z,1021.13
2018-12-27T08:44:39.222Z,1021.10
2018-12-27T08:45:39.219Z,1021.10
2018-12-27T08:46:39.220Z,1021.13
2018-12-27T08:47:39.229Z,1021.09
2018-12-27T08:48:39.211Z,1021.12
2018-12-27T08:49:39.222Z,1021.14
2018-12-27T08:50:39.228Z,1021.12
2018-12-27T08:51:39.228Z,1021.10
2018-12-27T08:52:39.236Z,1021.09
2018-12-27T08:53:39.242Z,1021.10
2018-12-27T08:54:39.232Z,1021.07
2018-12-27T08:55:39.234Z,1021.06
2018-12-27T08:56:39.237Z,1021.08
2018-12-27T08:57:39.241Z,1021.02
2018-12-27T08:58:39.237Z,1021.04
2018-12-27T08:59:39.245Z,1021.01
2018-12-27T09:00:39.245Z,1020.98
2018-12-27T09:01:40.771Z,1020.97
2018-12-27T09:02:39.321Z,1021.01
2018-12-27T09:03:39.250Z,1021.01
2018-12-27T09:04:39.249Z,1021.01
2018-12-27T09:05:39.251Z,1021.01
2018-12-27T09:06:39.251Z,1021.00
2018-12-27T09:07:39.253Z,1021.00
2018-12-27T09:08:39.259Z,1021.01
2018-12-27T09:09:39.269Z,1021.01
2018-12-27T09:10:39.259Z,1020.99
2018-12-27T09:11:39.349Z,1021.03
2018-12-27T09:12:39.258Z,1020.99
2018-12-27T09:13:39.268Z,1021.00
2018-12-27T09:14:39.271Z,1021.03
2018-12-27T09:15:39.264Z,1021.05
2018-12-27T09:16:39.274Z,1021.05
2018-12-27T09:17:39.282Z,1021.03
2018-12-27T09:18:39.270Z,1021.09
2018-12-27T09:19:39.279Z,1021.08
2018-12-27T09:20:39.282Z,1021.13
2018-12-27T09:21:39.285Z,1021.09
2018-12-27T09:22:39.286Z,1021.07
2018-12-27T09:23:39.289Z,1021.09
2018-12-27T09:24:39.294Z,1021.11
2018-12-27T09:25:39.290Z,1021.11
2018-12-27T09:26:39.292Z,1021.11
2018-12-27T09:27:39.299Z,1021.14
2018-12-27T09:28:39.295Z,1021.11
2018-12-27T09:29:39.299Z,1021.08
2018-12-27T09:30:39.309Z,1021.10
2018-12-27T09:31:39.369Z,1021.05
2018-12-27T09:32:39.308Z,1021.06
2018-12-27T09:33:39.309Z,1021.06
2018-12-27T09:34:39.311Z,1021.04
2018-12-27T09:35:39.312Z,1021.03
2018-12-27T09:36:39.315Z,1021.03
2018-12-27T09:37:39.316Z,1021.06
2018-12-27T09:38:39.320Z,1021.08
2018-12-27T09:39:39.322Z,1021.07
2018-12-27T09:40:39.320Z,1021.07
2018-12-27T09:41:39.327Z,1021.04
2018-12-27T09:42:39.326Z,1021.05
2018-12-27T09:43:39.335Z,1021.05
2018-12-27T09:44:39.337Z,1021.07
2018-12-27T09:45:39.352Z,1021.07
2018-12-27T09:46:39.337Z,1021.08
2018-12-27T09:47:39.340Z,1021.03
2018-12-27T09:48:39.340Z,1021.07
2018-12-27T09:49:39.347Z,1021.06
2018-12-27T09:50:39.346Z,1021.09
2018-12-27T09:51:39.351Z,1021.03
2018-12-27T09:52:39.349Z,1021.05
2018-12-27T09:53:39.355Z,1021.02
2018-12-27T09:54:39.355Z,1020.98
2018-12-27T09:55:39.358Z,1020.94
2018-12-27T09:56:39.361Z,1020.93
2018-12-27T09:57:39.363Z,1020.93
2018-12-27T09:58:39.370Z,1020.94
2018-12-27T09:59:39.385Z,1020.92
2018-12-27T10:00:39.951Z,1020.94
2018-12-27T10:01:39.378Z,1020.91
2018-12-27T10:02:39.375Z,1020.88
2018-12-27T10:03:39.378Z,1020.91
2018-12-27T10:04:39.382Z,1020.86
2018-12-27T10:05:39.384Z,1020.86
2018-12-27T10:06:39.387Z,1020.78
2018-12-27T10:07:39.389Z,1020.81
2018-12-27T10:08:39.391Z,1020.77
2018-12-27T10:09:39.399Z,1020.73
2018-12-27T10:10:39.402Z,1020.72
2018-12-27T10:11:39.406Z,1020.71
2018-12-27T10:12:39.405Z,1020.68
2018-12-27T10:13:39.433Z,1020.68
2018-12-27T10:14:39.398Z,1020.65
2018-12-27T10:15:39.413Z,1020.66
2018-12-27T10:16:39.414Z,1020.60
2018-12-27T10:17:39.423Z,1020.59
2018-12-27T10:18:39.416Z,1020.60
2018-12-27T10:19:39.419Z,1020.59
2018-12-27T10:20:39.420Z,1020.62
2018-12-27T10:21:39.427Z,1020.62
2018-12-27T10:22:39.442Z,1020.65
2018-12-27T10:23:39.433Z,1020.69
2018-12-27T10:24:39.439Z,1020.72
2018-12-27T10:25:39.436Z,1020.75
2018-12-27T10:26:39.444Z,1020.68
2018-12-27T10:27:39.444Z,1020.66
2018-12-27T10:28:39.446Z,1020.66
2018-12-27T10:29:39.450Z,1020.69
2018-12-27T10:30:39.454Z,1020.70
2018-12-27T10:31:39.460Z,1020.73
2018-12-27T10:32:39.453Z,1020.71
2018-12-27T10:33:39.461Z,1020.71
2018-12-27T10:34:39.462Z,1020.69
2018-12-27T10:35:41.175Z,1020.69
2018-12-27T10:36:40.834Z,1020.61
2018-12-27T10:37:39.464Z,1020.65
2018-12-27T10:38:39.486Z,1020.63
2018-12-27T10:39:39.487Z,1020.65
2018-12-27T10:40:39.489Z,1020.64
2018-12-27T10:42:39.486Z,1020.64
2018-12-27T10:43:39.495Z,1020.60
2018-12-27T10:44:39.500Z,1020.57
2018-12-27T10:45:39.507Z,1020.60
2018-12-27T10:46:39.508Z,1020.55
2018-12-27T10:47:39.513Z,1020.58
2018-12-27T10:48:39.512Z,1020.56
2018-12-27T10:49:39.521Z,1020.54
2018-12-27T10:50:39.524Z,1020.53
2018-12-27T10:51:39.529Z,1020.54
2018-12-27T10:52:39.527Z,1020.52
2018-12-27T10:53:39.534Z,1020.54
2018-12-27T10:54:39.535Z,1020.54
2018-12-27T10:55:39.540Z,1020.50
2018-12-27T10:56:39.545Z,1020.51
2018-12-27T10:58:39.556Z,1020.51
2018-12-27T10:59:39.557Z,1020.51
2018-12-27T11:00:39.558Z,1020.51
2018-12-27T11:01:39.562Z,1020.47
2018-12-27T11:02:39.574Z,1020.47
2018-12-27T11:03:39.570Z,1020.46
2018-12-27T11:04:40.427Z,1020.44
2018-12-27T11:05:39.577Z,1020.41
2018-12-27T11:06:39.580Z,1020.38
2018-12-27T11:07:39.610Z,1020.38
2018-12-27T11:08:39.597Z,1020.36
2018-12-27T11:09:39.598Z,1020.30
2018-12-27T11:10:39.594Z,1020.30
2018-12-27T11:11:39.614Z,1020.29
2018-12-27T11:12:39.613Z,1020.28
2018-12-27T11:13:39.613Z,1020.25
2018-12-27T11:14:39.616Z,1020.22
2018-12-27T11:15:39.718Z,1020.17
2018-12-27T11:16:39.622Z,1020.20
2018-12-27T11:17:39.631Z,1020.16
2018-12-27T11:18:39.627Z,1020.19
2018-12-27T11:19:39.641Z,1020.10
2018-12-27T11:20:39.643Z,1020.08
2018-12-27T11:21:39.643Z,1020.06
2018-12-27T11:22:39.652Z,1020.04
2018-12-27T11:23:39.661Z,1019.99
2018-12-27T11:24:39.652Z,1020.00
2018-12-27T11:25:39.660Z,1019.97
2018-12-27T11:26:39.652Z,1019.98
2018-12-27T11:27:39.670Z,1019.97
2018-12-27T11:28:39.665Z,1019.90
2018-12-27T11:29:39.672Z,1019.86
2018-12-27T11:30:39.672Z,1019.88
2018-12-27T11:31:39.681Z,1019.83
2018-12-27T11:32:39.675Z,1019.85
2018-12-27T11:33:39.684Z,1019.82
2018-12-27T11:34:39.681Z,1019.81
2018-12-27T11:35:39.697Z,1019.77
2018-12-27T11:36:39.697Z,1019.77
2018-12-27T11:37:39.703Z,1019.71
2018-12-27T11:38:39.706Z,1019.70
2018-12-27T11:39:39.708Z,1019.71
2018-12-27T11:40:39.712Z,1019.69
2018-12-27T11:41:39.722Z,1019.70
2018-12-27T11:42:39.716Z,1019.74
2018-12-27T11:43:40.429Z,1019.77
2018-12-27T11:44:39.734Z,1019.76
2018-12-27T11:45:39.726Z,1019.76
2018-12-27T11:46:39.730Z,1019.78
2018-12-27T11:47:39.731Z,1019.72
2018-12-27T11:48:39.741Z,1019.72
2018-12-27T11:49:39.754Z,1019.68
2018-12-27T11:50:39.744Z,1019.64
2018-12-27T11:51:39.745Z,1019.57
2018-12-27T11:52:39.748Z,1019.61
2018-12-27T11:53:39.753Z,1019.59
2018-12-27T11:54:39.756Z,1019.59
2018-12-27T11:55:39.758Z,1019.57
2018-12-27T11:56:39.774Z,1019.62
2018-12-27T11:57:39.767Z,1019.63
2018-12-27T11:58:39.763Z,1019.66
2018-12-27T11:59:39.780Z,1019.65
2018-12-27T12:00:39.775Z,1019.69
2018-12-27T12:01:39.781Z,1019.67
2018-12-27T12:02:39.786Z,1019.76
2018-12-27T12:03:39.790Z,1019.76
2018-12-27T12:04:39.780Z,1019.78
2018-12-27T12:05:39.790Z,1019.76
2018-12-27T12:06:39.796Z,1019.76
2018-12-27T12:07:39.799Z,1019.76
2018-12-27T12:08:39.799Z,1019.73
2018-12-27T12:09:39.802Z,1019.74